x

Nantucket 54nm Southeast Of Nantucket (44008) Wave Buoy

12:50pm - Wed 16th Aug 2017 All times are EDT. -4 hours from GMT.

  • Sig Wave height 9.2ft
  • Swell Direction
  • Peak Period 13s
  • Average Period 10s
  • Wind
    13mph, 16mph gusts
  • Sea Temp 68°f
  • Air Temp 66°f
  • Sea Pressure 1011.9mb
  • Nantucket 54nm Southeast Of Nantucket
  • Nantucket 54nm Southeast Of Nantucket

More Historic Weather Station data

Upgrade to MSW Pro to gain access to the past 30 days of data for over 8000 Wavebouys and Weather Stations around the globe.

Join

Comparision Forecast

View Surf forecast
   
Wed 08/16 12:50pm 9ft 13s 10s 13 16 mph 1011.9mb 68f 66f
11:50am 9.5ft 12s 10s 13 16 mph 1012mb 68f 68f
10:50am 8ft 13s 10s 11 18 mph 1011.9mb 68f 67f
9:50am 7ft 13s 9s 13 18 mph 1012mb 68f 66f
8:50am 6ft 13s 9s 18 20 mph 1011.7mb 68f 65f
7:50am 6ft 13s 8s 9 13 mph 1011.7mb 67f 67f
6:50am 6ft 12s 9s 11 16 mph 1011.5mb 67f 67f
5:50am 5.5ft 13s 9s 9 13 mph 1011.6mb 68f 68f
4:50am 6.5ft 13s 9s 4 7 mph 1011.5mb 68f 69f
3:50am 6ft 12s 8s 4 7 mph 1011.4mb 67f 69f
2:50am 5ft 13s 8s 2 4 mph 1011.4mb 68f 70f
1:50am 5ft 12s 8s 2 2 mph 1011.4mb 69f 70f
12:50am 5ft 13s 8s 11 13 mph 1011.8mb 70f 71f
Tue 08/15 11:50pm 5.5ft 9s 8s 13 16 mph 1011.7mb 70f 71f
9:50pm 5ft 8s 8s 9 11 mph 1012.3mb 69f 70f
8:50pm 4.5ft 8s 8s 11 13 mph 1013mb 69f 70f
7:50pm 4.5ft 9s 8s 7 9 mph 1013.3mb 69f 70f
5:50pm 4.5ft 9s 8s 7 9 mph 1013.3mb 69f 69f
4:50pm 4ft 9s 7s 4 4 mph 1013mb 69f 69f
3:50pm 3.5ft 9s 7s 7 7 mph 1013.5mb 69f 69f
2:50pm 3.5ft 9s 7s 4 7 mph 1013mb 69f 69f
1:50pm 3.5ft 9s 7s 7 9 mph 1013.8mb 69f 69f
12:50pm 3.5ft 10s 7s 9 9 mph 1013.8mb 70f 69f
11:50am 3.5ft 10s 7s 9 11 mph 1013.8mb 70f 69f
10:50am 3ft 11s 7s 7 9 mph 1014.5mb 70f 69f
9:50am 3.5ft 11s 7s 9 11 mph 1014mb 70f 69f
8:50am 3ft 11s 7s 7 9 mph 1014.3mb 70f 70f
7:50am 2.5ft 7s 6s 4 7 mph 1014.4mb 69f 69f
6:50am 3ft 8s 6s 4 4 mph 1014.7mb 69f 69f
5:50am 3ft 6s 6s 4 4 mph 1013.8mb 69f 69f
4:50am 3ft 7s 5s 2 2 mph 1013.9mb 69f 70f
3:50am 3.5ft 8s 6s 4 4 mph 1014.3mb 69f 70f
2:50am 3.5ft 7s 5s 4 4 mph 1014.4mb 69f 70f
1:50am 3.5ft 7s 5s 9 9 mph 1014.5mb 70f 70f
12:50am 3.5ft 7s 6s 7 9 mph 1015mb 70f 71f
Mon 08/14 11:50pm 3.5ft 7s 6s 7 9 mph 1015.1mb 70f 70f
10:50pm 3.5ft 8s 6s 4 4 mph 1015.5mb 70f 70f
9:50pm 3.5ft 7s 6s 4 4 mph 1015.5mb 70f 71f
8:50pm 3.5ft 7s 6s 7 7 mph 1015.5mb 70f 71f
7:50pm 3ft 7s 6s 7 7 mph 1015.7mb 70f 71f
6:50pm 3.5ft 8s 6s 4 4 mph 1015.6mb 70f 70f
5:50pm 3ft 8s 6s 2 4 mph 1015.5mb 70f 70f
4:50pm 3ft 7s 6s 4 7 mph 1015.8mb 70f 70f
3:50pm 3.5ft 7s 5s 7 9 mph 1016.4mb 70f 70f
2:50pm 3.5ft 7s 5s 9 11 mph 1016mb 71f 70f
1:50pm 3.5ft 7s 5s 7 7 mph 1016.5mb 71f 70f
12:50pm 4.5ft 7s 6s 7 9 mph 1016.8mb 71f 71f
11:50am 4.5ft 7s 5s 7 7 mph 1017.2mb 71f 71f
10:50am 4.5ft 7s 6s 7 9 mph 1017.6mb 70f 69f
9:50am 4.5ft 7s 6s 7 9 mph 1017.3mb 70f 69f
8:50am 5ft 8s 6s 7 9 mph 1017.5mb 70f 68f
7:50am 5ft 8s 6s 2 4 mph 1017.1mb 70f 68f
6:50am 5ft 8s 7s 2 4 mph 1016.7mb 70f 69f
5:50am 5ft 8s 6s  -  2 mph 1016.4mb 69f 69f
4:50am 5ft 8s 7s 2 4 mph 1016mb 69f 69f
3:50am 5.5ft 8s  -  4 7 mph 1016mb 69f 69f
2:50am 5ft 8s 7s 7 7 mph 1016.1mb 69f 69f
1:50am 6ft 8s 7s 7 9 mph 1016.1mb 69f 69f
12:50am 5ft 8s 6s 4 7 mph 1016mb 69f 69f
Sun 08/13 11:50pm 6ft 8s 7s 7 9 mph 1015.9mb 70f 69f
10:50pm 5.5ft 9s 7s 4 7 mph 1015.6mb 70f 68f
9:50pm 5.5ft 8s 7s 7 7 mph 1014.9mb 70f 70f
8:50pm 5.5ft 8s 6s 4 7 mph 1014.6mb 70f 69f
7:50pm 6ft 8s 6s 11 13 mph 1014mb 70f 70f
6:50pm 6ft 7s 6s 13 16 mph 1013.5mb 70f 70f
5:50pm 6ft 8s 6s 16 18 mph 1012.9mb 71f 71f
4:50pm 5ft 7s 6s 11 13 mph 1012.6mb 70f 71f
3:50pm 4ft 6s 5s 11 13 mph 1012.3mb 70f 72f
2:50pm 4ft 6s 5s 7 7 mph 1011.4mb 71f 72f
1:50pm 4.5ft 6s 5s 4 4 mph 1011.2mb 70f 72f
12:50pm 4.5ft 7s 5s 4 7 mph 1011.2mb 70f 72f
11:50am 5.5ft 7s 5s 4 7 mph 1011.3mb 70f 71f
10:50am 6ft 7s 5s 11 13 mph 1011.7mb 70f 72f
9:50am 6ft 7s 5s 22 27 mph 1011.9mb 70f 71f
8:50am 6ft 7s 6s 27 31 mph 1012.2mb 70f 72f
7:50am 5ft 7s 6s 22 29 mph 1011.9mb 70f 71f
6:50am 5ft 7s 6s 11 13 mph 1012.2mb 70f 69f
5:50am 5ft 6s 5s 16 20 mph 1012.9mb 70f 69f
4:50am 5ft 7s 5s 9 13 mph 1012.1mb 70f 70f
3:50am 5ft 7s 5s 18 20 mph 1012mb 69f 71f
2:50am 4.5ft 6s 5s 16 18 mph 1012.7mb 69f 71f
1:50am 4.5ft 7s 5s 16 18 mph 1013.1mb 69f 71f
12:50am 5ft 7s 5s 13 16 mph 1014.2mb 69f 71f
Sat 08/12 11:50pm 4.5ft 7s 5s 11 13 mph 1013.8mb 69f 71f
10:50pm 5ft 8s 6s 13 18 mph 1013.9mb 69f 72f
9:50pm 4.5ft 7s  -  9 11 mph 1014.4mb 69f 71f
8:50pm 4ft 7s 5s 11 11 mph 1014.3mb 70f 72f
7:50pm 4.5ft 6s 6s 11 11 mph 1013.7mb 69f 72f
6:50pm 4ft 6s 6s 13 18 mph 1013.1mb 70f 72f
5:50pm 4.5ft 7s 6s 9 9 mph 1013.9mb 70f 71f